Time;durP1;ratioP1;P1;durP2;ratioP2;P2;SDS_P1;SDS_P2;PMS_P1;PMS_P2;Temp;Humidity;BMP_temperature;BMP_pressure;BME280_temperature;BME280_humidity;BME280_pressure;Samples;Min_cycle;Max_cycle;Signal;HPM_P1;HPM_P2
2022/04/12 00:00:31;;;;;;;;;;;19.80;99.90;;;;;;5060910;28;19931;-56
2022/04/12 00:02:58;;;;;;;;;;;19.80;99.90;;;;;;5057377;28;19924;-58
2022/04/12 00:05:25;;;;;;;;;;;19.80;99.90;;;;;;5063930;28;19932;-58
2022/04/12 00:07:57;;;;;;;;;;;19.80;99.90;;;;;;5061805;28;20305;-58
2022/04/12 00:10:25;;;;;;;;;;;19.80;99.90;;;;;;5055918;28;19921;-58
2022/04/12 00:12:52;;;;;;;;;;;19.80;99.90;;;;;;5061824;28;19924;-58
2022/04/12 00:15:19;;;;;;;;;;;19.80;99.90;;;;;;5058853;28;20104;-58
2022/04/12 00:20:32;;;;;;;;;;;19.80;99.90;;;;;;5057739;28;20309;-58
2022/04/12 00:22:59;;;;;;;;;;;19.70;99.90;;;;;;5060040;28;19920;-58
2022/04/12 00:25:27;;;;;;;;;;;19.70;99.90;;;;;;5071434;28;19930;-57
2022/04/12 00:27:57;;;;;;;;;;;19.80;99.90;;;;;;5063405;28;20329;-57
2022/04/12 00:30:25;;;;;;;;;;;19.70;99.90;;;;;;5067361;28;19936;-57
2022/04/12 00:32:52;;;;;;;;;;;19.70;99.90;;;;;;5060793;28;20325;-58
2022/04/12 00:35:21;;;;;;;;;;;19.70;99.90;;;;;;5063501;28;19947;-56
2022/04/12 00:37:50;;;;;;;;;;;19.70;99.90;;;;;;5067948;28;19928;-57
2022/04/12 00:40:20;;;;;;;;;;;19.70;99.90;;;;;;5058469;28;19952;-59
2022/04/12 00:42:48;;;;;;;;;;;19.70;99.90;;;;;;5060782;28;19936;-57
2022/04/12 00:45:15;;;;;;;;;;;19.70;99.90;;;;;;5062622;28;20341;-57
2022/04/12 00:47:43;;;;;;;;;;;19.70;99.90;;;;;;5059992;28;19947;-57
2022/04/12 00:50:11;;;;;;;;;;;19.70;99.90;;;;;;5066895;28;20424;-59
2022/04/12 00:52:39;;;;;;;;;;;19.70;99.90;;;;;;5061316;28;19924;-57
2022/04/12 00:55:07;;;;;;;;;;;19.70;99.90;;;;;;5066039;28;19924;-57
2022/04/12 00:57:34;;;;;;;;;;;19.70;99.90;;;;;;5067830;28;19931;-56
2022/04/12 01:00:03;;;;;;;;;;;19.70;99.90;;;;;;5061985;28;21034;-57
2022/04/12 01:02:31;;;;;;;;;;;19.70;99.90;;;;;;5064647;28;19928;-57
2022/04/12 01:04:59;;;;;;;;;;;19.70;99.90;;;;;;5054320;28;19921;-61
2022/04/12 01:07:27;;;;;;;;;;;19.70;99.90;;;;;;5067871;28;19927;-59
2022/04/12 01:09:54;;;;;;;;;;;19.70;99.90;;;;;;5064290;28;20381;-57
2022/04/12 01:12:21;;;;;;;;;;;19.70;99.90;;;;;;5062608;28;19931;-58
2022/04/12 01:14:48;;;;;;;;;;;19.70;99.90;;;;;;5063664;28;20420;-58
2022/04/12 01:17:15;;;;;;;;;;;19.70;99.90;;;;;;5061051;28;19925;-59
2022/04/12 01:19:43;;;;;;;;;;;19.60;99.90;;;;;;5063875;28;20682;-58
2022/04/12 01:22:17;;;;;;;;;;;19.60;99.90;;;;;;5064379;28;19924;-59
2022/04/12 01:24:44;;;;;;;;;;;19.70;99.90;;;;;;5061425;28;19920;-57
2022/04/12 01:27:12;;;;;;;;;;;19.70;99.90;;;;;;5061407;28;19928;-57
2022/04/12 01:29:39;;;;;;;;;;;19.70;99.90;;;;;;5060271;28;19947;-56
2022/04/12 01:32:08;;;;;;;;;;;19.70;99.90;;;;;;5056686;28;19932;-57
2022/04/12 01:34:35;;;;;;;;;;;19.70;99.90;;;;;;5060877;28;19925;-56
2022/04/12 01:37:03;;;;;;;;;;;19.60;99.90;;;;;;5064369;28;19932;-59
2022/04/12 01:39:30;;;;;;;;;;;19.70;99.90;;;;;;5053766;28;19928;-58
2022/04/12 01:41:57;;;;;;;;;;;19.70;99.90;;;;;;5062138;28;20393;-58
2022/04/12 01:44:25;;;;;;;;;;;19.60;99.90;;;;;;5064103;28;20286;-57
2022/04/12 01:46:52;;;;;;;;;;;19.70;99.90;;;;;;5051557;28;19924;-57
2022/04/12 01:49:19;;;;;;;;;;;19.70;99.90;;;;;;5064394;28;19924;-58
2022/04/12 01:51:48;;;;;;;;;;;19.60;99.90;;;;;;5060238;28;20018;-58
2022/04/12 01:54:15;;;;;;;;;;;19.60;99.90;;;;;;5061060;28;19925;-59
2022/04/12 01:56:42;;;;;;;;;;;19.70;99.90;;;;;;5069939;28;19931;-59
2022/04/12 01:59:09;;;;;;;;;;;19.60;99.90;;;;;;5054838;28;19925;-62
2022/04/12 02:01:36;;;;;;;;;;;19.60;99.90;;;;;;5063267;28;19931;-61
2022/04/12 02:04:03;;;;;;;;;;;19.60;99.90;;;;;;5059975;28;19931;-61
2022/04/12 02:06:30;;;;;;;;;;;19.60;99.90;;;;;;5054176;28;20385;-60
2022/04/12 02:08:57;;;;;;;;;;;19.60;99.90;;;;;;5059654;28;19928;-59
2022/04/12 02:11:25;;;;;;;;;;;19.60;99.90;;;;;;5066955;28;20381;-59
2022/04/12 02:13:52;;;;;;;;;;;19.60;99.90;;;;;;5060378;28;20128;-60
2022/04/12 02:16:19;;;;;;;;;;;19.60;99.90;;;;;;5031475;28;19924;-60
2022/04/12 02:18:47;;;;;;;;;;;19.60;99.90;;;;;;5069404;28;19924;-61
2022/04/12 02:21:14;;;;;;;;;;;19.60;99.90;;;;;;5060810;28;19924;-60
2022/04/12 02:23:41;;;;;;;;;;;19.60;99.90;;;;;;5055573;28;19928;-58
2022/04/12 02:26:09;;;;;;;;;;;19.60;99.90;;;;;;5061485;28;19947;-60
2022/04/12 02:28:36;;;;;;;;;;;19.60;99.90;;;;;;5060209;28;20296;-58
2022/04/12 02:31:03;;;;;;;;;;;19.60;99.90;;;;;;5053234;28;19925;-59
2022/04/12 02:33:30;;;;;;;;;;;19.60;99.90;;;;;;5059246;28;19924;-60
2022/04/12 02:35:57;;;;;;;;;;;19.60;99.90;;;;;;5066946;28;19928;-60
2022/04/12 02:38:24;;;;;;;;;;;19.60;99.90;;;;;;5049087;28;19958;-57
2022/04/12 02:40:51;;;;;;;;;;;19.60;99.90;;;;;;5065334;28;19932;-60
2022/04/12 02:43:18;;;;;;;;;;;19.60;99.90;;;;;;5074762;28;20412;-60
2022/04/12 02:45:46;;;;;;;;;;;19.60;99.90;;;;;;5068828;28;19924;-62
2022/04/12 02:48:14;;;;;;;;;;;19.60;99.90;;;;;;5054905;28;19921;-59
2022/04/12 02:50:41;;;;;;;;;;;19.60;99.90;;;;;;5066885;28;20380;-57
2022/04/12 02:53:08;;;;;;;;;;;19.60;99.90;;;;;;5069413;28;19928;-60
2022/04/12 02:55:36;;;;;;;;;;;19.60;99.90;;;;;;5052159;28;19927;-60
2022/04/12 02:58:03;;;;;;;;;;;19.50;99.90;;;;;;5064638;28;19931;-60
2022/04/12 03:00:30;;;;;;;;;;;19.50;99.90;;;;;;5064198;28;19932;-60
2022/04/12 03:02:57;;;;;;;;;;;19.50;99.90;;;;;;5063029;28;19929;-60
2022/04/12 03:05:25;;;;;;;;;;;19.50;99.90;;;;;;5070495;28;20111;-59
2022/04/12 03:07:52;;;;;;;;;;;19.50;99.90;;;;;;5066402;28;19924;-59
2022/04/12 03:10:19;;;;;;;;;;;19.50;99.90;;;;;;5072288;28;19929;-62
2022/04/12 03:12:46;;;;;;;;;;;19.50;99.90;;;;;;5060273;28;19924;-59
2022/04/12 03:15:13;;;;;;;;;;;19.40;99.90;;;;;;5040917;28;19924;-60
2022/04/12 03:17:40;;;;;;;;;;;19.40;99.90;;;;;;5066197;28;19924;-56
2022/04/12 03:20:08;;;;;;;;;;;19.40;99.90;;;;;;5067505;28;20352;-61
2022/04/12 03:22:35;;;;;;;;;;;19.40;99.90;;;;;;5058624;28;19924;-58
2022/04/12 03:25:02;;;;;;;;;;;19.40;99.90;;;;;;5061521;28;20364;-58
2022/04/12 03:27:29;;;;;;;;;;;19.40;99.90;;;;;;5065614;28;19924;-59
2022/04/12 03:29:56;;;;;;;;;;;19.40;99.90;;;;;;5063983;28;20353;-59
2022/04/12 03:32:24;;;;;;;;;;;19.40;99.90;;;;;;5056906;28;20412;-61
2022/04/12 03:34:51;;;;;;;;;;;19.40;99.90;;;;;;5057956;28;19931;-58
2022/04/12 03:37:18;;;;;;;;;;;19.40;99.90;;;;;;5061238;28;19929;-60
2022/04/12 03:39:47;;;;;;;;;;;19.40;99.90;;;;;;5066821;28;19928;-60
2022/04/12 03:42:16;;;;;;;;;;;19.40;99.90;;;;;;5071817;28;19920;-59
2022/04/12 03:44:44;;;;;;;;;;;19.40;99.90;;;;;;5058695;28;19928;-56
2022/04/12 03:47:11;;;;;;;;;;;19.40;99.90;;;;;;5049220;28;19920;-58
2022/04/12 03:49:39;;;;;;;;;;;19.40;99.90;;;;;;5061284;28;20437;-61
2022/04/12 03:52:06;;;;;;;;;;;19.40;99.90;;;;;;5061829;28;19924;-60
2022/04/12 03:54:33;;;;;;;;;;;19.40;99.90;;;;;;5067697;28;19924;-58
2022/04/12 03:57:00;;;;;;;;;;;19.50;99.90;;;;;;5064962;28;19924;-58
2022/04/12 03:59:27;;;;;;;;;;;19.60;99.90;;;;;;5059050;28;19924;-60
2022/04/12 04:01:54;;;;;;;;;;;19.80;99.90;;;;;;5059025;28;20392;-57
2022/04/12 04:04:22;;;;;;;;;;;20.00;99.90;;;;;;5061720;28;19921;-60
2022/04/12 04:06:49;;;;;;;;;;;20.20;99.90;;;;;;5069745;28;19936;-60
2022/04/12 04:09:16;;;;;;;;;;;20.40;99.90;;;;;;5057373;28;20574;-58
2022/04/12 04:11:43;;;;;;;;;;;20.60;99.90;;;;;;5059272;28;19928;-56
2022/04/12 04:14:12;;;;;;;;;;;20.80;99.90;;;;;;5060380;28;19924;-59
2022/04/12 04:16:39;;;;;;;;;;;21.00;99.90;;;;;;5064172;28;19980;-62
2022/04/12 04:19:09;;;;;;;;;;;21.30;99.90;;;;;;5058556;28;19925;-59
2022/04/12 04:21:36;;;;;;;;;;;21.50;99.90;;;;;;5063880;28;19924;-57
2022/04/12 04:24:04;;;;;;;;;;;21.60;99.90;;;;;;5059815;28;20002;-58
2022/04/12 04:26:31;;;;;;;;;;;21.70;99.90;;;;;;5058401;28;19924;-58
2022/04/12 04:28:58;;;;;;;;;;;21.80;99.90;;;;;;5062990;28;19936;-58
2022/04/12 04:31:26;;;;;;;;;;;21.80;99.90;;;;;;5055069;28;19920;-58
2022/04/12 04:33:57;;;;;;;;;;;21.80;99.90;;;;;;5058126;28;19932;-61
2022/04/12 04:36:24;;;;;;;;;;;21.80;99.90;;;;;;5059977;28;19932;-56
2022/04/12 04:38:51;;;;;;;;;;;21.80;99.90;;;;;;5056609;28;20316;-59
2022/04/12 04:41:18;;;;;;;;;;;21.80;99.90;;;;;;5062293;28;19924;-60
2022/04/12 04:43:46;;;;;;;;;;;21.80;99.90;;;;;;5057191;28;20320;-60
2022/04/12 04:46:13;;;;;;;;;;;21.80;99.90;;;;;;5062756;28;20421;-58
2022/04/12 04:48:41;;;;;;;;;;;21.70;99.90;;;;;;5046052;28;19920;-59
2022/04/12 04:51:09;;;;;;;;;;;21.80;99.90;;;;;;5045585;28;19924;-58
2022/04/12 04:53:37;;;;;;;;;;;21.70;99.90;;;;;;5060851;28;19932;-59
2022/04/12 04:56:05;;;;;;;;;;;21.70;99.90;;;;;;5029427;28;19925;-58
2022/04/12 04:58:32;;;;;;;;;;;21.60;99.90;;;;;;5066843;28;20001;-57
2022/04/12 05:01:00;;;;;;;;;;;21.60;99.90;;;;;;5058550;28;19927;-58
2022/04/12 05:03:27;;;;;;;;;;;21.50;99.90;;;;;;5047026;28;19931;-59
2022/04/12 05:05:54;;;;;;;;;;;21.60;99.90;;;;;;5061549;28;20328;-57
2022/04/12 05:08:21;;;;;;;;;;;21.50;99.90;;;;;;5061251;28;19920;-60
2022/04/12 05:10:49;;;;;;;;;;;21.50;99.90;;;;;;5060754;28;19928;-58
2022/04/12 05:13:16;;;;;;;;;;;21.40;99.90;;;;;;5061337;28;19932;-59
2022/04/12 05:15:44;;;;;;;;;;;21.40;99.90;;;;;;5053794;28;20331;-58
2022/04/12 05:18:11;;;;;;;;;;;21.40;99.90;;;;;;5063450;28;19928;-60
2022/04/12 05:20:38;;;;;;;;;;;21.40;99.90;;;;;;5071973;28;20441;-60
2022/04/12 05:23:11;;;;;;;;;;;21.40;99.90;;;;;;5046891;28;19927;-59
2022/04/12 05:25:38;;;;;;;;;;;21.40;99.90;;;;;;5043416;28;20310;-58
2022/04/12 05:28:05;;;;;;;;;;;21.30;99.90;;;;;;5060931;28;19921;-61
2022/04/12 05:30:32;;;;;;;;;;;21.30;99.90;;;;;;5058972;28;19924;-58
2022/04/12 05:33:00;;;;;;;;;;;21.30;99.90;;;;;;5040602;28;20345;-59
2022/04/12 05:35:27;;;;;;;;;;;21.30;99.90;;;;;;5057155;28;20319;-61
2022/04/12 05:37:54;;;;;;;;;;;21.30;99.90;;;;;;5057905;28;19944;-61
2022/04/12 05:40:21;;;;;;;;;;;21.30;99.90;;;;;;5060595;28;19935;-58
2022/04/12 05:42:49;;;;;;;;;;;21.30;99.90;;;;;;5056410;28;20015;-65
2022/04/12 05:45:16;;;;;;;;;;;21.20;99.90;;;;;;5061966;28;19974;-61
2022/04/12 05:47:44;;;;;;;;;;;21.30;99.90;;;;;;5065520;28;19935;-59
2022/04/12 05:50:12;;;;;;;;;;;21.30;99.90;;;;;;5061933;28;19920;-58
2022/04/12 05:52:40;;;;;;;;;;;21.20;99.90;;;;;;5062423;28;19924;-61
2022/04/12 05:55:11;;;;;;;;;;;21.20;99.90;;;;;;5038496;28;19931;-60
2022/04/12 05:57:46;;;;;;;;;;;21.20;99.90;;;;;;5059804;28;20049;-60
2022/04/12 06:00:14;;;;;;;;;;;21.10;99.90;;;;;;5056878;28;20051;-61
2022/04/12 06:02:41;;;;;;;;;;;21.10;99.90;;;;;;5057833;28;19924;-61
2022/04/12 06:05:13;;;;;;;;;;;21.10;99.90;;;;;;5060287;28;19931;-67
2022/04/12 06:07:41;;;;;;;;;;;21.10;99.90;;;;;;5057092;28;20321;-63
2022/04/12 06:10:09;;;;;;;;;;;20.90;99.90;;;;;;5053097;28;19931;-64
2022/04/12 06:12:36;;;;;;;;;;;20.60;99.90;;;;;;5051833;28;19928;-69
2022/04/12 06:15:04;;;;;;;;;;;20.50;99.20;;;;;;5045422;28;19924;-66
2022/04/12 06:17:31;;;;;;;;;;;20.40;99.30;;;;;;5046660;28;19924;-66
2022/04/12 06:20:02;;;;;;;;;;;20.50;99.20;;;;;;5044916;28;19924;-68
2022/04/12 06:22:29;;;;;;;;;;;20.50;99.30;;;;;;5070110;28;19924;-62
2022/04/12 06:24:56;;;;;;;;;;;20.60;99.90;;;;;;5057987;28;19928;-57
2022/04/12 06:27:45;;;;;;;;;;;20.60;99.90;;;;;;5070975;28;19931;-61
2022/04/12 06:30:14;;;;;;;;;;;20.50;99.90;;;;;;5059350;28;19924;-64
2022/04/12 06:32:42;;;;;;;;;;;20.60;99.90;;;;;;5064832;28;19928;-59
2022/04/12 06:35:10;;;;;;;;;;;20.60;99.90;;;;;;5056427;28;19925;-61
2022/04/12 06:37:39;;;;;;;;;;;20.50;99.90;;;;;;5058478;28;19947;-58
2022/04/12 06:40:07;;;;;;;;;;;20.60;99.90;;;;;;5060137;28;19931;-57
2022/04/12 06:42:34;;;;;;;;;;;20.50;99.90;;;;;;5056422;28;19929;-59
2022/04/12 06:45:06;;;;;;;;;;;20.40;99.90;;;;;;5056576;28;20382;-58
2022/04/12 06:47:33;;;;;;;;;;;20.30;98.90;;;;;;5042518;28;20334;-60
2022/04/12 06:50:01;;;;;;;;;;;20.30;98.10;;;;;;5058866;28;20743;-68
2022/04/12 06:52:28;;;;;;;;;;;20.20;98.50;;;;;;5051775;28;19932;-63
2022/04/12 06:54:55;;;;;;;;;;;20.30;99.10;;;;;;5058929;28;19930;-64
2022/04/12 06:57:22;;;;;;;;;;;20.30;99.60;;;;;;5060150;28;19935;-61
2022/04/12 06:59:51;;;;;;;;;;;20.30;99.90;;;;;;5060075;28;19925;-60
2022/04/12 07:02:18;;;;;;;;;;;20.30;99.90;;;;;;5060051;28;19924;-64
2022/04/12 07:04:46;;;;;;;;;;;20.30;99.90;;;;;;5067365;28;19921;-64
2022/04/12 07:07:13;;;;;;;;;;;20.30;99.90;;;;;;5063217;28;19925;-64
2022/04/12 07:09:40;;;;;;;;;;;20.30;99.90;;;;;;5064982;28;19928;-63
2022/04/12 07:12:07;;;;;;;;;;;20.40;99.90;;;;;;5060082;28;19931;-67
2022/04/12 07:14:35;;;;;;;;;;;20.40;99.90;;;;;;5061454;28;19920;-64
2022/04/12 07:17:03;;;;;;;;;;;20.40;99.90;;;;;;5056022;28;19924;-62
2022/04/12 07:19:30;;;;;;;;;;;20.40;99.90;;;;;;5057156;28;19929;-62
2022/04/12 07:21:58;;;;;;;;;;;20.40;99.90;;;;;;5060234;28;20321;-60
2022/04/12 07:24:25;;;;;;;;;;;20.40;99.90;;;;;;5057112;28;19924;-60
2022/04/12 07:26:52;;;;;;;;;;;20.50;99.90;;;;;;5065935;28;19935;-59
2022/04/12 07:29:19;;;;;;;;;;;20.40;99.90;;;;;;5062143;28;19931;-63
2022/04/12 07:31:46;;;;;;;;;;;20.40;99.90;;;;;;5060094;28;19931;-60
2022/04/12 07:34:14;;;;;;;;;;;20.40;99.90;;;;;;5055179;28;19936;-66
2022/04/12 07:36:47;;;;;;;;;;;20.50;99.90;;;;;;5040112;28;19924;-62
2022/04/12 07:39:15;;;;;;;;;;;20.50;99.90;;;;;;5058219;28;20389;-62
2022/04/12 07:41:43;;;;;;;;;;;20.50;99.90;;;;;;5059831;28;19936;-58
2022/04/12 07:44:10;;;;;;;;;;;20.50;99.90;;;;;;5062802;28;20321;-60
2022/04/12 07:46:37;;;;;;;;;;;20.50;99.90;;;;;;5060896;28;19924;-59
2022/04/12 07:49:04;;;;;;;;;;;20.40;99.90;;;;;;5065378;28;19947;-58
2022/04/12 07:51:32;;;;;;;;;;;20.30;99.90;;;;;;5061767;28;19924;-60
2022/04/12 07:54:01;;;;;;;;;;;20.20;99.90;;;;;;5053573;28;19940;-59
2022/04/12 07:56:28;;;;;;;;;;;20.10;99.70;;;;;;5061806;28;20448;-65
2022/04/12 07:58:55;;;;;;;;;;;20.10;97.50;;;;;;5058900;28;19939;-66
2022/04/12 08:01:22;;;;;;;;;;;20.10;96.10;;;;;;5064683;28;19924;-66
2022/04/12 08:03:49;;;;;;;;;;;20.20;95.50;;;;;;5065724;28;20003;-64
2022/04/12 08:06:17;;;;;;;;;;;20.30;94.40;;;;;;5070251;28;19924;-60
2022/04/12 08:08:44;;;;;;;;;;;20.40;93.50;;;;;;5068375;28;20381;-59
2022/04/12 08:11:12;;;;;;;;;;;20.50;92.70;;;;;;5066329;28;19928;-59
2022/04/12 08:13:40;;;;;;;;;;;20.60;91.90;;;;;;5061880;28;19943;-58
2022/04/12 08:16:09;;;;;;;;;;;20.70;91.30;;;;;;5060216;28;19932;-58
2022/04/12 08:18:36;;;;;;;;;;;20.80;91.00;;;;;;5058599;28;20878;-58
2022/04/12 08:21:03;;;;;;;;;;;20.90;90.80;;;;;;5051293;28;20363;-59
2022/04/12 08:23:30;;;;;;;;;;;20.90;90.30;;;;;;5062421;28;19924;-58
2022/04/12 08:25:57;;;;;;;;;;;20.90;90.00;;;;;;5043599;28;19932;-59
2022/04/12 08:28:24;;;;;;;;;;;21.00;89.40;;;;;;5044959;28;20408;-60
2022/04/12 08:30:52;;;;;;;;;;;21.00;88.80;;;;;;5043367;28;19925;-58
2022/04/12 08:33:19;;;;;;;;;;;21.00;88.00;;;;;;5056251;28;19936;-58
2022/04/12 08:35:47;;;;;;;;;;;21.00;87.90;;;;;;5069463;28;19924;-61
2022/04/12 08:38:14;;;;;;;;;;;21.00;87.80;;;;;;5068219;28;19920;-58
2022/04/12 08:40:41;;;;;;;;;;;20.90;87.60;;;;;;5062209;28;19927;-58
2022/04/12 08:43:08;;;;;;;;;;;20.90;87.10;;;;;;5061947;28;19928;-59
2022/04/12 08:45:36;;;;;;;;;;;20.90;87.10;;;;;;5063534;28;19924;-59
2022/04/12 08:48:07;;;;;;;;;;;20.90;87.10;;;;;;5056535;28;19931;-60
2022/04/12 08:50:34;;;;;;;;;;;20.90;87.00;;;;;;5065101;28;19931;-58
2022/04/12 08:53:02;;;;;;;;;;;20.90;86.90;;;;;;5035727;28;20316;-60
2022/04/12 08:55:30;;;;;;;;;;;20.90;86.70;;;;;;5059224;28;19928;-59
2022/04/12 08:57:57;;;;;;;;;;;20.90;86.50;;;;;;5059658;28;19924;-59
2022/04/12 09:00:24;;;;;;;;;;;20.80;87.00;;;;;;5061786;28;20319;-57
2022/04/12 09:02:59;;;;;;;;;;;20.80;87.60;;;;;;5062409;28;19951;-59
2022/04/12 09:05:27;;;;;;;;;;;20.80;87.40;;;;;;5043593;28;19928;-62
2022/04/12 09:07:55;;;;;;;;;;;20.70;87.50;;;;;;5060103;28;19924;-63
2022/04/12 09:10:32;;;;;;;;;;;20.70;87.40;;;;;;5038380;28;19929;-56
2022/04/12 09:13:09;;;;;;;;;;;20.70;87.80;;;;;;5066508;28;19931;-58
2022/04/12 09:15:44;;;;;;;;;;;20.60;88.30;;;;;;5060007;28;19928;-58
2022/04/12 09:18:34;;;;;;;;;;;20.60;88.50;;;;;;5069437;28;19924;-62
2022/04/12 09:21:11;;;;;;;;;;;20.60;89.50;;;;;;5069008;28;19924;-61
2022/04/12 09:23:43;;;;;;;;;;;20.70;90.20;;;;;;5060347;28;19924;-59
2022/04/12 09:26:23;;;;;;;;;;;20.60;90.70;;;;;;5060197;28;19925;-59
2022/04/12 09:28:52;;;;;;;;;;;20.70;91.10;;;;;;5058295;28;19931;-57
2022/04/12 09:31:22;;;;;;;;;;;20.70;91.60;;;;;;5056575;28;19932;-56
2022/04/12 09:33:50;;;;;;;;;;;20.60;92.40;;;;;;5064991;28;20317;-60
2022/04/12 09:36:17;;;;;;;;;;;20.60;92.50;;;;;;5061627;28;19924;-59
2022/04/12 09:38:45;;;;;;;;;;;20.70;92.90;;;;;;5040914;28;19921;-60
2022/04/12 09:41:19;;;;;;;;;;;20.70;93.30;;;;;;5066308;28;19928;-57
2022/04/12 09:44:08;;;;;;;;;;;20.60;93.70;;;;;;5059711;28;19920;-61
2022/04/12 09:46:36;;;;;;;;;;;20.70;94.10;;;;;;5052993;28;19927;-59
2022/04/12 09:49:04;;;;;;;;;;;20.60;94.40;;;;;;5043405;28;19931;-54
2022/04/12 09:51:32;;;;;;;;;;;20.60;94.70;;;;;;5062715;28;20549;-56
2022/04/12 09:53:59;;;;;;;;;;;20.70;95.00;;;;;;5065286;28;19927;-58
2022/04/12 09:56:31;;;;;;;;;;;20.60;95.40;;;;;;5059393;28;19925;-56
2022/04/12 09:58:59;;;;;;;;;;;20.60;95.60;;;;;;5060416;28;19955;-57
2022/04/12 10:01:27;;;;;;;;;;;20.60;95.90;;;;;;5064219;28;19932;-59
2022/04/12 10:03:56;;;;;;;;;;;20.60;96.30;;;;;;5058726;28;19924;-58
2022/04/12 10:06:24;;;;;;;;;;;20.60;96.60;;;;;;5061635;28;20317;-58
2022/04/12 10:08:52;;;;;;;;;;;20.60;96.90;;;;;;5055712;28;19924;-57
2022/04/12 10:11:20;;;;;;;;;;;20.60;97.20;;;;;;5061630;28;19924;-59
2022/04/12 10:13:47;;;;;;;;;;;20.60;97.40;;;;;;5064884;28;20380;-58
2022/04/12 10:16:16;;;;;;;;;;;20.60;97.70;;;;;;5061801;28;19927;-58
2022/04/12 10:18:44;;;;;;;;;;;20.60;97.90;;;;;;5060021;28;19928;-58
2022/04/12 10:21:12;;;;;;;;;;;20.60;98.10;;;;;;5062561;28;19931;-58
2022/04/12 10:23:43;;;;;;;;;;;20.60;98.20;;;;;;5062095;28;20308;-57
2022/04/12 10:26:11;;;;;;;;;;;20.60;98.40;;;;;;5062280;28;19925;-56
2022/04/12 10:28:39;;;;;;;;;;;20.60;98.60;;;;;;5058996;28;20447;-58
2022/04/12 10:31:12;;;;;;;;;;;20.60;98.70;;;;;;5051204;28;20393;-59
2022/04/12 10:34:14;;;;;;;;;;;20.60;98.90;;;;;;5058340;28;19927;-63
2022/04/12 10:36:54;;;;;;;;;;;20.60;99.00;;;;;;5062128;28;19924;-58
2022/04/12 10:39:46;;;;;;;;;;;20.60;99.10;;;;;;5057426;28;20479;-57
2022/04/12 10:42:18;;;;;;;;;;;20.60;99.20;;;;;;5042056;28;19928;-56
2022/04/12 10:44:46;;;;;;;;;;;20.60;99.30;;;;;;5057345;28;19928;-59
2022/04/12 10:47:21;;;;;;;;;;;20.60;99.40;;;;;;5046583;28;20312;-59
2022/04/12 10:49:51;;;;;;;;;;;20.60;99.30;;;;;;5062638;28;19924;-62
2022/04/12 10:52:18;;;;;;;;;;;20.60;98.60;;;;;;5056523;28;19925;-59
2022/04/12 10:54:46;;;;;;;;;;;20.50;97.70;;;;;;5056332;28;20325;-58
2022/04/12 10:57:17;;;;;;;;;;;20.40;96.90;;;;;;5064525;28;19924;-63
2022/04/12 10:59:49;;;;;;;;;;;20.40;96.40;;;;;;5066936;28;19936;-58
2022/04/12 11:02:16;;;;;;;;;;;20.30;96.10;;;;;;5063196;28;19951;-62
2022/04/12 11:04:43;;;;;;;;;;;20.40;96.30;;;;;;5058983;28;19936;-57
2022/04/12 11:07:26;;;;;;;;;;;20.50;96.40;;;;;;5057876;28;20293;-57
2022/04/12 11:10:12;;;;;;;;;;;20.50;96.20;;;;;;5061985;28;19929;-62
2022/04/12 11:12:41;;;;;;;;;;;20.50;95.60;;;;;;5057577;28;20413;-56
2022/04/12 11:15:28;;;;;;;;;;;20.40;95.00;;;;;;5062455;28;19948;-61
2022/04/12 11:18:24;;;;;;;;;;;20.40;94.90;;;;;;5052838;28;19932;-59
2022/04/12 11:21:02;;;;;;;;;;;20.40;95.00;;;;;;5041480;28;19927;-55
2022/04/12 11:23:47;;;;;;;;;;;20.40;95.00;;;;;;5062248;28;20385;-60
2022/04/12 11:26:33;;;;;;;;;;;20.40;94.70;;;;;;5060047;28;20002;-65
2022/04/12 11:29:00;;;;;;;;;;;20.40;94.90;;;;;;5058683;28;19924;-57
2022/04/12 11:31:27;;;;;;;;;;;20.40;94.70;;;;;;5059536;28;20038;-56
2022/04/12 11:33:57;;;;;;;;;;;20.40;94.60;;;;;;5056705;28;19928;-63
2022/04/12 11:36:26;;;;;;;;;;;20.30;94.60;;;;;;5064462;28;20400;-64
2022/04/12 11:38:55;;;;;;;;;;;20.40;94.80;;;;;;5059072;28;20413;-63
2022/04/12 11:41:22;;;;;;;;;;;20.40;94.90;;;;;;5061843;28;19935;-63
2022/04/12 11:44:02;;;;;;;;;;;20.40;95.10;;;;;;5058936;28;19932;-63
2022/04/12 11:46:30;;;;;;;;;;;20.40;95.20;;;;;;5061222;28;19924;-65
2022/04/12 11:49:05;;;;;;;;;;;20.40;95.20;;;;;;5066966;28;19925;-64
2022/04/12 11:51:43;;;;;;;;;;;20.40;95.10;;;;;;5065607;28;19924;-64
2022/04/12 11:54:20;;;;;;;;;;;20.50;94.60;;;;;;5056950;28;19929;-63
2022/04/12 11:56:51;;;;;;;;;;;20.50;94.20;;;;;;5066625;28;19920;-60
2022/04/12 11:59:19;;;;;;;;;;;20.70;94.20;;;;;;5046748;28;20270;-63
2022/04/12 12:01:46;;;;;;;;;;;20.80;93.90;;;;;;5061811;28;19924;-67
2022/04/12 12:04:13;;;;;;;;;;;20.80;93.40;;;;;;5062540;28;19972;-63
2022/04/12 12:06:57;;;;;;;;;;;20.90;92.80;;;;;;5065290;28;19932;-63
2022/04/12 12:09:24;;;;;;;;;;;21.00;92.30;;;;;;5063032;28;20395;-58
2022/04/12 12:11:52;;;;;;;;;;;21.00;91.70;;;;;;5060520;28;19924;-63
2022/04/12 12:14:20;;;;;;;;;;;21.10;91.40;;;;;;5068723;28;20397;-60
2022/04/12 12:17:08;;;;;;;;;;;21.10;90.00;;;;;;5048041;28;20397;-56
2022/04/12 12:19:38;;;;;;;;;;;21.10;90.30;;;;;;5058063;28;19930;-63
2022/04/12 12:22:06;;;;;;;;;;;21.10;90.60;;;;;;5045392;28;19925;-65
2022/04/12 12:24:37;;;;;;;;;;;21.10;87.20;;;;;;5045559;28;19928;-64
2022/04/12 12:27:05;;;;;;;;;;;21.10;86.20;;;;;;5058528;28;19931;-60
2022/04/12 12:29:38;;;;;;;;;;;21.10;89.10;;;;;;5061318;28;19927;-58
2022/04/12 12:32:05;;;;;;;;;;;21.10;90.20;;;;;;5059988;28;19925;-59
2022/04/12 12:34:33;;;;;;;;;;;21.20;90.00;;;;;;5058240;28;19924;-59
2022/04/12 12:37:10;;;;;;;;;;;21.10;90.70;;;;;;5060378;28;21472;-58
2022/04/12 12:39:41;;;;;;;;;;;21.10;90.70;;;;;;5063238;28;20408;-57
2022/04/12 12:42:09;;;;;;;;;;;21.10;88.00;;;;;;5053110;28;19924;-57
2022/04/12 12:44:37;;;;;;;;;;;21.10;88.80;;;;;;5060883;28;19931;-58
2022/04/12 12:47:04;;;;;;;;;;;21.20;88.90;;;;;;5040111;28;20143;-57
2022/04/12 12:49:39;;;;;;;;;;;21.20;90.20;;;;;;5060826;28;19936;-56
2022/04/12 12:52:10;;;;;;;;;;;21.20;90.30;;;;;;5057990;28;19924;-57
2022/04/12 12:54:38;;;;;;;;;;;21.10;88.80;;;;;;5046594;28;19935;-58
2022/04/12 12:57:08;;;;;;;;;;;21.20;89.70;;;;;;5063215;28;19921;-57
2022/04/12 12:59:36;;;;;;;;;;;21.20;89.60;;;;;;5066361;28;19974;-56
2022/04/12 13:02:07;;;;;;;;;;;21.20;88.20;;;;;;5060491;28;19932;-59
2022/04/12 13:04:38;;;;;;;;;;;21.30;90.00;;;;;;5060970;28;20420;-61
2022/04/12 13:07:06;;;;;;;;;;;21.20;90.00;;;;;;5061630;28;19920;-60
2022/04/12 13:09:54;;;;;;;;;;;21.20;89.00;;;;;;5061984;28;19952;-59
2022/04/12 13:12:22;;;;;;;;;;;21.30;90.20;;;;;;5048458;28;19925;-64
2022/04/12 13:14:49;;;;;;;;;;;21.30;89.90;;;;;;5068278;28;19924;-61
2022/04/12 13:17:21;;;;;;;;;;;21.20;90.20;;;;;;5051521;28;20271;-61
2022/04/12 13:19:49;;;;;;;;;;;21.30;87.90;;;;;;5055761;28;20338;-58
2022/04/12 13:22:18;;;;;;;;;;;21.30;88.90;;;;;;5056060;28;20176;-58
2022/04/12 13:24:45;;;;;;;;;;;21.40;88.90;;;;;;5061593;28;19940;-59
2022/04/12 13:27:12;;;;;;;;;;;21.40;90.10;;;;;;5066391;28;19924;-63
2022/04/12 13:29:39;;;;;;;;;;;21.50;90.70;;;;;;5058122;28;19924;-60
2022/04/12 13:32:07;;;;;;;;;;;21.50;90.90;;;;;;5045089;28;19931;-59
2022/04/12 13:34:34;;;;;;;;;;;21.50;91.30;;;;;;5062695;28;19944;-58
2022/04/12 13:37:02;;;;;;;;;;;21.60;91.90;;;;;;5065834;28;20248;-61
2022/04/12 13:39:30;;;;;;;;;;;21.60;92.10;;;;;;5047841;28;20452;-54
2022/04/12 13:41:57;;;;;;;;;;;21.50;92.40;;;;;;5063426;28;20039;-58
2022/04/12 13:44:25;;;;;;;;;;;21.50;92.60;;;;;;5064764;28;19928;-59
2022/04/12 13:46:58;;;;;;;;;;;21.50;92.70;;;;;;5062014;28;19924;-58
2022/04/12 13:49:26;;;;;;;;;;;21.60;93.20;;;;;;5063755;28;19931;-60
2022/04/12 13:51:53;;;;;;;;;;;21.60;93.20;;;;;;5064055;28;19924;-58
2022/04/12 13:54:20;;;;;;;;;;;21.60;93.30;;;;;;5064062;28;19920;-59
2022/04/12 13:56:48;;;;;;;;;;;21.60;92.50;;;;;;5062314;28;19947;-58
2022/04/12 13:59:15;;;;;;;;;;;21.50;92.80;;;;;;5061310;28;19935;-57
2022/04/12 14:01:48;;;;;;;;;;;21.50;92.70;;;;;;5060346;28;19924;-60
2022/04/12 14:04:15;;;;;;;;;;;21.40;92.60;;;;;;5062779;28;19924;-59
2022/04/12 14:06:43;;;;;;;;;;;21.50;92.50;;;;;;5038457;28;19935;-58
2022/04/12 14:09:10;;;;;;;;;;;21.50;92.50;;;;;;5060964;28;19920;-56
2022/04/12 14:11:37;;;;;;;;;;;21.50;92.70;;;;;;5067056;28;19924;-57
2022/04/12 14:14:05;;;;;;;;;;;21.50;92.80;;;;;;5059653;28;19928;-57
2022/04/12 14:16:32;;;;;;;;;;;21.50;92.80;;;;;;5059044;28;20054;-58
2022/04/12 14:18:59;;;;;;;;;;;21.40;92.90;;;;;;5066021;28;19921;-57
2022/04/12 14:21:26;;;;;;;;;;;21.40;92.90;;;;;;5065132;28;20277;-54
2022/04/12 14:23:53;;;;;;;;;;;21.40;93.00;;;;;;5047473;28;20416;-59
2022/04/12 14:26:20;;;;;;;;;;;21.40;93.20;;;;;;5060158;28;19932;-58
2022/04/12 14:28:48;;;;;;;;;;;21.50;93.30;;;;;;5060426;28;19932;-59